DNCA

Margaret Ekpo International Airport

Calabar, Nigeria
TAF DNCA 210330Z 2106/2212 00000KT 8000 SCT008 BECMG 2109/2111 23010KT BKN012 FEW021CB TEMPO 2114/2120 TS PROB30 TEMPO 2115/2119 5000 -TSRA BKN008 FEW019CB
Issued Valid From Valid To
Apr-21 @ 03:30 UTC
(6 hours ago)
Apr-21 @ 06:00 UTC
(4 hours ago)
Apr-22 @ 12:00 UTC
(-1 days ago)
Expired Click to View Apr-21 @ 06:00 to Apr-21 @ 09:00
TAF DNCA 210330Z 2106/2212 00000KT 8000 SCT008
Visibility Clouds
7,998 meters
  • Scattered at 800' AGL
Becoming Apr-21 @ 09:00 to Apr-22 @ 12:00
BECMG 2109/2111 23010KT BKN012 FEW021CB
Wind Visibility Clouds
230° at 10 knots 7,998 meters
  • Broken at 1,200' AGL
  • Few at 2,100' AGL
Temporary Apr-21 @ 14:00 to Apr-21 @ 20:00
TEMPO 2114/2120 TS
Conditions
  • Thunderstorm
Temporary  (Probability 30%) Apr-21 @ 15:00 to Apr-21 @ 19:00
PROB30 TEMPO 2115/2119 5000 -TSRA BKN008 FEW019CB
Visibility Clouds Conditions
5,005 meters
  • Broken at 800' AGL
  • Few at 1,900' AGL
  • Light Thunderstorm
  • Light Rain
TAF DNCA 210330Z 2106/2212 00000KT 8000 SCT008 BECMG 2109/2111 23010KT BKN012 FEW021CB TEMPO 2114/2120 TS PROB30 TEMPO 2115/2119 5000 -TSRA BKN008 FEW019CB
Issued Apr-21 @ 03:30 UTC
(6 hours ago)
Valid From Apr-21 @ 06:00 UTC
(4 hours ago)
Valid To Apr-22 @ 12:00 UTC
(-1 days ago)
Apr-21 @ 06:00 - Apr-21 @ 09:00
Clouds
  • Scattered at 800' AGL
Becoming Apr-21 @ 09:00 - Apr-22 @ 12:00
Wind Visibility
230° at 10 knots 7,998 meters
Clouds
  • Broken at 1,200' AGL
  • Few at 2,100' AGL
Temporary Apr-21 @ 14:00 - Apr-21 @ 20:00
Conditions
  • Thunderstorm
Probability 30% Temporary Apr-21 @ 15:00 - Apr-21 @ 19:00
Clouds
  • Broken at 800' AGL
  • Few at 1,900' AGL
Conditions
  • Light Thunderstorm
  • Light Rain